createdAt,value
2019-04-25T00:01:47.389Z,47.92
2019-04-25T00:04:15.532Z,48.13
2019-04-25T00:06:42.892Z,48.29
2019-04-25T00:09:12.755Z,48.27
2019-04-25T00:11:39.556Z,48.68
2019-04-25T00:14:06.626Z,48.31
2019-04-25T00:16:35.144Z,48.54
2019-04-25T00:19:02.020Z,48.76
2019-04-25T00:21:32.058Z,48.16
2019-04-25T00:24:02.633Z,48.43
2019-04-25T00:26:31.687Z,47.81
2019-04-25T00:28:58.355Z,48.01
2019-04-25T00:31:26.111Z,47.97
2019-04-25T00:33:53.941Z,47.64
2019-04-25T00:36:21.830Z,47.88
2019-04-25T00:38:49.266Z,47.79
2019-04-25T00:41:17.148Z,47.78
2019-04-25T00:43:44.098Z,47.87
2019-04-25T00:46:11.436Z,48.27
2019-04-25T00:48:38.290Z,48.31
2019-04-25T00:51:04.949Z,48.17
2019-04-25T00:53:32.406Z,48.34
2019-04-25T00:56:01.452Z,48.69
2019-04-25T00:58:31.510Z,48.51
2019-04-25T01:01:01.886Z,48.67
2019-04-25T01:03:31.703Z,48.48
2019-04-25T01:05:59.706Z,49.11
2019-04-25T01:08:26.711Z,48.99
2019-04-25T01:10:54.239Z,49.01
2019-04-25T01:13:22.321Z,49.17
2019-04-25T01:15:49.399Z,49.10
2019-04-25T01:18:16.040Z,49.23
2019-04-25T01:20:43.454Z,49.84
2019-04-25T01:23:11.595Z,49.63
2019-04-25T01:25:41.020Z,49.08
2019-04-25T01:28:06.935Z,49.51
2019-04-25T01:30:34.006Z,49.63
2019-04-25T01:33:01.100Z,49.68
2019-04-25T01:35:29.858Z,49.18
2019-04-25T01:37:58.744Z,49.86
2019-04-25T01:40:27.319Z,49.97
2019-04-25T01:42:55.932Z,50.33
2019-04-25T01:45:24.516Z,49.74
2019-04-25T01:47:52.573Z,50.31
2019-04-25T01:50:20.183Z,50.12
2019-04-25T01:52:46.770Z,50.10
2019-04-25T01:55:13.841Z,50.57
2019-04-25T01:57:40.645Z,50.45
2019-04-25T02:00:10.624Z,51.01
2019-04-25T02:02:37.518Z,50.54
2019-04-25T02:05:06.347Z,51.80
2019-04-25T02:07:33.425Z,51.58
2019-04-25T02:10:00.486Z,52.26
2019-04-25T02:12:29.145Z,52.99
2019-04-25T02:14:56.853Z,52.96
2019-04-25T02:17:24.230Z,53.63
2019-04-25T02:19:52.151Z,54.43
2019-04-25T02:22:19.315Z,54.37
2019-04-25T02:24:45.980Z,53.87
2019-04-25T02:27:13.523Z,54.91
2019-04-25T02:29:40.570Z,55.14
2019-04-25T02:32:09.134Z,55.49
2019-04-25T02:34:36.081Z,55.16
2019-04-25T02:37:08.667Z,56.00
2019-04-25T02:39:36.762Z,56.00
2019-04-25T02:42:04.009Z,56.25
2019-04-25T02:44:34.337Z,55.94
2019-04-25T02:47:02.194Z,55.99
2019-04-25T02:49:38.686Z,55.90
2019-04-25T02:52:02.611Z,55.76
2019-04-25T02:54:30.109Z,56.21
2019-04-25T02:56:57.495Z,56.50
2019-04-25T02:59:25.550Z,56.20
2019-04-25T03:01:54.119Z,56.53
2019-04-25T03:04:20.736Z,56.68
2019-04-25T03:06:47.665Z,56.31
2019-04-25T03:09:15.379Z,56.37
2019-04-25T03:11:45.098Z,56.09
2019-04-25T03:14:11.314Z,56.85
2019-04-25T03:16:38.289Z,56.54
2019-04-25T03:19:08.255Z,56.52
2019-04-25T03:21:37.650Z,56.30
2019-04-25T03:24:09.066Z,56.39
2019-04-25T03:26:40.347Z,56.55
2019-04-25T03:29:04.661Z,56.20
2019-04-25T03:31:31.452Z,56.39
2019-04-25T03:33:58.230Z,56.21
2019-04-25T03:36:24.907Z,56.62
2019-04-25T03:38:51.754Z,56.26
2019-04-25T03:41:18.433Z,55.92
2019-04-25T03:43:45.128Z,55.93
2019-04-25T03:46:14.243Z,55.68
2019-04-25T03:48:41.418Z,56.33
2019-04-25T03:51:08.342Z,56.40
2019-04-25T03:53:35.083Z,56.63
2019-04-25T03:56:02.821Z,56.51
2019-04-25T03:58:30.257Z,56.03
2019-04-25T04:00:58.554Z,56.20
2019-04-25T04:03:25.160Z,56.18
2019-04-25T04:05:51.835Z,56.89
2019-04-25T04:08:18.460Z,56.49
2019-04-25T04:10:48.260Z,56.40
2019-04-25T04:13:15.853Z,56.63
2019-04-25T04:15:43.366Z,57.62
2019-04-25T04:18:14.341Z,57.10
2019-04-25T04:20:43.569Z,57.23
2019-04-25T04:23:13.482Z,57.04
2019-04-25T04:25:41.330Z,56.85
2019-04-25T04:28:07.975Z,57.08
2019-04-25T04:30:34.774Z,56.73
2019-04-25T04:33:03.635Z,56.53
2019-04-25T04:35:30.493Z,56.98
2019-04-25T04:37:57.262Z,56.45
2019-04-25T04:40:24.374Z,56.31
2019-04-25T04:42:51.294Z,55.46
2019-04-25T04:45:18.319Z,56.09
2019-04-25T04:47:45.407Z,55.38
2019-04-25T04:50:14.191Z,55.14
2019-04-25T04:52:40.979Z,54.63
2019-04-25T04:55:10.011Z,55.20
2019-04-25T04:57:37.794Z,55.68
2019-04-25T05:00:06.741Z,55.26
2019-04-25T05:02:35.238Z,55.08
2019-04-25T05:05:04.110Z,55.39
2019-04-25T05:07:34.277Z,54.45
2019-04-25T05:10:00.907Z,54.93
2019-04-25T05:12:27.474Z,54.33
2019-04-25T05:14:54.052Z,53.56
2019-04-25T05:17:20.604Z,53.36
2019-04-25T05:19:47.193Z,53.05
2019-04-25T05:22:14.813Z,52.54
2019-04-25T05:24:43.841Z,52.72
2019-04-25T05:27:10.743Z,52.03
2019-04-25T05:29:37.348Z,52.37
2019-04-25T05:32:04.303Z,52.59
2019-04-25T05:34:31.300Z,51.89
2019-04-25T05:36:57.946Z,51.78
2019-04-25T05:39:25.149Z,51.53
2019-04-25T05:41:54.007Z,52.09
2019-04-25T05:44:21.129Z,51.25
2019-04-25T05:46:47.723Z,51.74
2019-04-25T05:49:15.513Z,51.02
2019-04-25T05:51:43.737Z,50.71
2019-04-25T05:54:10.580Z,50.32
2019-04-25T05:56:37.283Z,50.28
2019-04-25T05:59:05.496Z,50.16
2019-04-25T06:01:34.306Z,49.37
2019-04-25T06:04:01.443Z,49.37
2019-04-25T06:06:28.270Z,48.78
2019-04-25T06:08:56.859Z,47.96
2019-04-25T06:11:26.137Z,47.95
2019-04-25T06:13:54.773Z,48.06
2019-04-25T06:16:25.598Z,46.77
2019-04-25T06:18:54.943Z,46.10
2019-04-25T06:21:23.269Z,46.29
2019-04-25T06:23:52.328Z,45.67
2019-04-25T06:26:33.117Z,45.34
2019-04-25T06:28:53.731Z,45.46
2019-04-25T06:31:16.557Z,46.39
2019-04-25T06:33:43.460Z,45.56
2019-04-25T06:36:10.274Z,46.09
2019-04-25T06:38:37.300Z,46.55
2019-04-25T06:41:03.959Z,46.66
2019-04-25T06:43:30.627Z,46.66
2019-04-25T06:45:59.101Z,45.56
2019-04-25T06:48:27.543Z,44.47
2019-04-25T06:50:54.330Z,45.27
2019-04-25T06:53:21.782Z,45.12
2019-04-25T06:55:49.451Z,44.50
2019-04-25T06:58:16.144Z,43.89
2019-04-25T07:00:57.616Z,43.28
2019-04-25T07:03:13.945Z,43.46
2019-04-25T07:05:41.378Z,43.50
2019-04-25T07:08:08.065Z,43.04
2019-04-25T07:10:35.010Z,43.39
2019-04-25T07:13:01.806Z,43.78
2019-04-25T07:15:28.496Z,44.82
2019-04-25T07:17:55.363Z,45.06
2019-04-25T07:20:24.879Z,44.77
2019-04-25T07:22:51.735Z,44.17
2019-04-25T07:25:21.963Z,43.78
2019-04-25T07:27:50.759Z,43.02
2019-04-25T07:30:27.227Z,42.91
2019-04-25T07:32:53.973Z,42.01
2019-04-25T07:35:20.797Z,42.10
2019-04-25T07:37:47.649Z,41.90
2019-04-25T07:40:15.518Z,41.83
2019-04-25T07:42:43.828Z,41.91
2019-04-25T07:45:14.193Z,41.72
2019-04-25T07:47:41.044Z,42.19
2019-04-25T07:50:09.117Z,41.57
2019-04-25T07:52:37.706Z,40.81
2019-04-25T07:55:05.703Z,40.73
2019-04-25T07:57:33.532Z,40.81
2019-04-25T08:00:01.212Z,40.31
2019-04-25T08:02:28.249Z,41.23
2019-04-25T08:04:55.905Z,40.77
2019-04-25T08:07:24.055Z,40.80
2019-04-25T08:09:51.235Z,41.25
2019-04-25T08:12:18.130Z,40.77
2019-04-25T08:14:46.591Z,40.37
2019-04-25T08:17:15.476Z,40.66
2019-04-25T08:19:44.215Z,40.02
2019-04-25T08:22:13.643Z,40.33
2019-04-25T08:24:41.305Z,39.92
2019-04-25T08:27:08.127Z,39.67
2019-04-25T08:29:37.995Z,40.02
2019-04-25T08:32:04.599Z,39.78
2019-04-25T08:34:32.432Z,39.38
2019-04-25T08:36:59.960Z,40.03
2019-04-25T08:39:27.667Z,40.24
2019-04-25T08:41:54.556Z,39.03
2019-04-25T08:44:21.513Z,39.42
2019-04-25T08:46:48.895Z,39.07
2019-04-25T08:49:17.491Z,39.41
2019-04-25T08:51:45.050Z,39.11
2019-04-25T08:54:13.773Z,38.41
2019-04-25T08:56:40.842Z,40.35
2019-04-25T08:59:09.967Z,38.58
2019-04-25T09:01:40.607Z,38.02
2019-04-25T09:04:09.221Z,38.49
2019-04-25T09:06:37.548Z,38.00
2019-04-25T09:09:07.225Z,37.95
2019-04-25T09:11:36.663Z,38.06
2019-04-25T09:14:03.722Z,37.46
2019-04-25T09:16:30.754Z,37.47
2019-04-25T09:18:57.377Z,37.11
2019-04-25T09:21:24.087Z,37.20
2019-04-25T09:23:50.930Z,37.50
2019-04-25T09:26:17.753Z,36.93
2019-04-25T09:28:46.314Z,37.65
2019-04-25T09:31:14.117Z,36.34
2019-04-25T09:33:41.230Z,36.71
2019-04-25T09:36:08.243Z,36.36
2019-04-25T09:38:35.744Z,36.15
2019-04-25T09:41:03.954Z,36.07
2019-04-25T09:43:30.923Z,35.95
2019-04-25T09:45:59.569Z,36.53
2019-04-25T09:48:28.079Z,36.08
2019-04-25T09:50:56.634Z,36.32
2019-04-25T09:53:23.905Z,36.11
2019-04-25T09:55:51.984Z,35.92
2019-04-25T09:58:20.480Z,36.24
2019-04-25T10:00:49.193Z,35.59
2019-04-25T10:03:15.845Z,36.24
2019-04-25T10:05:42.798Z,36.46
2019-04-25T10:08:09.551Z,36.13
2019-04-25T10:10:36.611Z,35.61
2019-04-25T10:13:06.272Z,35.11
2019-04-25T10:15:39.066Z,35.56
2019-04-25T10:18:06.118Z,35.49
2019-04-25T10:20:33.441Z,35.35
2019-04-25T10:23:00.563Z,34.91
2019-04-25T10:25:27.238Z,34.93
2019-04-25T10:27:54.044Z,34.82
2019-04-25T10:30:23.744Z,35.28
2019-04-25T10:32:49.562Z,35.31
2019-04-25T10:35:16.253Z,35.19
2019-04-25T10:37:44.828Z,35.23
2019-04-25T10:40:14.267Z,34.99
2019-04-25T10:42:41.222Z,35.07
2019-04-25T10:45:20.471Z,35.08
2019-04-25T10:47:37.913Z,34.72
2019-04-25T10:50:06.045Z,34.30
2019-04-25T10:52:33.749Z,34.16
2019-04-25T10:55:00.517Z,34.70
2019-04-25T10:57:28.496Z,33.70
2019-04-25T11:00:05.911Z,33.73
2019-04-25T11:02:24.390Z,34.27
2019-04-25T11:04:54.538Z,34.10
2019-04-25T11:07:23.382Z,33.66
2019-04-25T11:09:50.140Z,33.80
2019-04-25T11:12:17.894Z,34.21
2019-04-25T11:14:44.928Z,33.76
2019-04-25T11:17:13.204Z,34.03
2019-04-25T11:19:41.034Z,33.58
2019-04-25T11:22:08.343Z,32.78
2019-04-25T11:24:36.786Z,33.46
2019-04-25T11:27:04.298Z,33.54
2019-04-25T11:29:31.348Z,33.15
2019-04-25T11:31:58.572Z,32.97
2019-04-25T11:34:25.971Z,33.41
2019-04-25T11:36:52.632Z,32.96
2019-04-25T11:39:21.333Z,34.15
2019-04-25T11:41:49.463Z,33.31
2019-04-25T11:44:16.845Z,33.93
2019-04-25T11:46:45.324Z,34.06
2019-04-25T11:49:15.118Z,33.67
2019-04-25T11:51:42.744Z,33.68
2019-04-25T11:54:10.746Z,34.11
2019-04-25T11:56:37.429Z,33.75
2019-04-25T11:59:04.613Z,33.43
2019-04-25T12:01:31.600Z,33.07
2019-04-25T12:03:58.535Z,33.45
2019-04-25T12:06:25.317Z,33.42
2019-04-25T12:08:53.853Z,32.51
2019-04-25T12:11:20.585Z,33.69
2019-04-25T12:13:48.103Z,33.57
2019-04-25T12:16:17.183Z,32.93
2019-04-25T12:18:47.690Z,33.31
2019-04-25T12:21:13.587Z,33.32
2019-04-25T12:23:40.518Z,33.02
2019-04-25T12:26:07.317Z,33.09
2019-04-25T12:28:34.177Z,32.66
2019-04-25T12:31:00.966Z,33.19
2019-04-25T12:33:27.622Z,32.41
2019-04-25T12:35:55.328Z,32.56
2019-04-25T12:38:24.478Z,31.89
2019-04-25T12:40:52.634Z,32.16
2019-04-25T12:43:23.905Z,32.10
2019-04-25T12:45:52.964Z,32.33
2019-04-25T12:48:19.649Z,32.75
2019-04-25T12:50:47.908Z,32.25
2019-04-25T12:53:15.004Z,32.09
2019-04-25T12:55:41.857Z,32.71
2019-04-25T12:58:08.517Z,32.41
2019-04-25T13:00:47.278Z,32.39
2019-04-25T13:03:06.845Z,32.02
2019-04-25T13:05:34.167Z,32.08
2019-04-25T13:08:01.154Z,31.97
2019-04-25T13:10:27.927Z,32.50
2019-04-25T13:12:55.484Z,32.61
2019-04-25T13:15:23.475Z,32.66
2019-04-25T13:17:51.146Z,32.68
2019-04-25T13:20:18.187Z,32.09
2019-04-25T13:22:44.743Z,32.12
2019-04-25T13:25:14.813Z,31.39
2019-04-25T13:27:44.575Z,31.55
2019-04-25T13:30:14.018Z,31.95
2019-04-25T13:32:42.786Z,32.06
2019-04-25T13:35:13.518Z,31.63
2019-04-25T13:37:40.227Z,31.74
2019-04-25T13:40:07.130Z,31.47
2019-04-25T13:42:33.715Z,30.48
2019-04-25T13:45:00.627Z,30.93
2019-04-25T13:47:29.176Z,30.70
2019-04-25T13:49:56.125Z,30.53
2019-04-25T13:52:23.858Z,31.26
2019-04-25T13:54:51.243Z,31.16
2019-04-25T13:57:17.933Z,31.79
2019-04-25T13:59:45.859Z,30.82
2019-04-25T14:02:14.130Z,31.10
2019-04-25T14:04:40.914Z,31.49
2019-04-25T14:07:07.782Z,31.51
2019-04-25T14:09:34.912Z,31.47
2019-04-25T14:12:01.855Z,31.43
2019-04-25T14:14:28.544Z,31.12
2019-04-25T14:16:57.227Z,30.85
2019-04-25T14:19:25.773Z,30.77
2019-04-25T14:21:54.386Z,30.93
2019-04-25T14:24:22.915Z,30.87
2019-04-25T14:26:50.216Z,30.10
2019-04-25T14:29:17.104Z,30.55
2019-04-25T14:31:47.958Z,30.68
2019-04-25T14:34:13.278Z,30.73
2019-04-25T14:36:40.064Z,31.19
2019-04-25T14:39:07.081Z,30.72
2019-04-25T14:41:35.579Z,30.85
2019-04-25T14:44:02.253Z,31.30
2019-04-25T14:46:29.851Z,31.42
2019-04-25T14:48:56.647Z,32.43
2019-04-25T14:51:24.139Z,31.44
2019-04-25T14:53:52.359Z,32.87
2019-04-25T14:56:21.655Z,32.55
2019-04-25T14:58:49.179Z,32.31
2019-04-25T15:01:17.958Z,32.34
2019-04-25T15:03:44.879Z,32.06
2019-04-25T15:06:11.976Z,32.09
2019-04-25T15:08:38.833Z,31.21
2019-04-25T15:11:05.887Z,30.91
2019-04-25T15:13:32.658Z,31.42
2019-04-25T15:15:59.520Z,30.62
2019-04-25T15:18:26.727Z,30.37
2019-04-25T15:20:53.430Z,30.04
2019-04-25T15:23:24.139Z,30.40
2019-04-25T15:25:51.691Z,30.45
2019-04-25T15:28:18.622Z,31.00
2019-04-25T15:30:45.968Z,30.89
2019-04-25T15:33:12.809Z,30.54
2019-04-25T15:35:41.524Z,30.66
2019-04-25T15:38:10.171Z,30.54
2019-04-25T15:40:41.063Z,30.31
2019-04-25T15:43:09.966Z,30.72
2019-04-25T15:45:41.337Z,30.88
2019-04-25T15:48:08.133Z,30.65
2019-04-25T15:50:35.023Z,31.16
2019-04-25T15:53:01.787Z,31.21
2019-04-25T15:55:28.990Z,31.06
2019-04-25T15:57:56.101Z,30.94
2019-04-25T16:00:25.062Z,31.06
2019-04-25T16:02:51.841Z,31.75
2019-04-25T16:05:18.481Z,32.08
2019-04-25T16:07:45.394Z,32.16
2019-04-25T16:10:12.737Z,32.45
2019-04-25T16:12:42.721Z,32.64
2019-04-25T16:15:09.725Z,33.48
2019-04-25T16:17:37.190Z,33.06
2019-04-25T16:20:05.652Z,32.87
2019-04-25T16:22:32.493Z,33.31
2019-04-25T16:24:59.239Z,33.02
2019-04-25T16:27:25.971Z,33.58
2019-04-25T16:29:52.648Z,33.15
2019-04-25T16:32:22.552Z,33.32
2019-04-25T16:34:49.282Z,33.51
2019-04-25T16:37:16.184Z,33.76
2019-04-25T16:39:43.174Z,33.64
2019-04-25T16:42:10.062Z,34.12
2019-04-25T16:44:36.699Z,34.13
2019-04-25T16:47:03.791Z,34.09
2019-04-25T16:49:30.903Z,34.23
2019-04-25T16:51:57.641Z,34.27
2019-04-25T16:54:24.284Z,34.41
2019-04-25T16:56:51.250Z,34.50
2019-04-25T16:59:18.075Z,34.88
2019-04-25T17:01:45.031Z,34.90
2019-04-25T17:04:12.107Z,34.68
2019-04-25T17:06:38.995Z,34.77
2019-04-25T17:09:06.221Z,35.36
2019-04-25T17:11:35.890Z,35.13
2019-04-25T17:14:05.112Z,35.66
2019-04-25T17:16:32.562Z,36.03
2019-04-25T17:19:01.377Z,36.06
2019-04-25T17:21:28.088Z,36.50
2019-04-25T17:23:54.989Z,37.04
2019-04-25T17:26:22.066Z,37.34
2019-04-25T17:28:50.884Z,37.50
2019-04-25T17:31:19.931Z,37.54
2019-04-25T17:33:48.624Z,38.22
2019-04-25T17:36:17.438Z,38.48
2019-04-25T17:38:46.426Z,38.55
2019-04-25T17:41:13.014Z,38.64
2019-04-25T17:43:39.804Z,38.61
2019-04-25T17:46:10.878Z,39.21
2019-04-25T17:48:36.921Z,39.15
2019-04-25T17:51:06.073Z,39.49
2019-04-25T17:53:33.078Z,39.67
2019-04-25T17:56:00.072Z,40.30
2019-04-25T17:58:29.230Z,40.47
2019-04-25T18:00:56.218Z,40.27
2019-04-25T18:03:23.481Z,40.81
2019-04-25T18:05:51.667Z,40.79
2019-04-25T18:08:18.418Z,40.92
2019-04-25T18:10:45.043Z,41.00
2019-04-25T18:13:11.730Z,41.37
2019-04-25T18:15:40.290Z,41.33
2019-04-25T18:18:08.926Z,41.93
2019-04-25T18:20:38.848Z,42.37
2019-04-25T18:23:07.814Z,42.19
2019-04-25T18:25:36.938Z,42.82
2019-04-25T18:28:06.148Z,42.78
2019-04-25T18:30:32.950Z,43.12
2019-04-25T18:33:10.029Z,43.13
2019-04-25T18:35:31.962Z,43.50
2019-04-25T18:38:00.654Z,43.88
2019-04-25T18:40:29.216Z,44.01
2019-04-25T18:42:57.820Z,44.57
2019-04-25T18:45:26.461Z,44.49
2019-04-25T18:47:53.241Z,44.51
2019-04-25T18:50:21.941Z,45.12
2019-04-25T18:52:50.628Z,45.21
2019-04-25T18:55:19.230Z,45.24
2019-04-25T18:57:47.809Z,45.41
2019-04-25T19:00:16.705Z,45.89
2019-04-25T19:02:45.998Z,45.81
2019-04-25T19:05:14.827Z,45.98
2019-04-25T19:07:41.517Z,46.36
2019-04-25T19:10:10.164Z,46.66
2019-04-25T19:12:36.745Z,46.81
2019-04-25T19:15:05.070Z,47.23
2019-04-25T19:17:31.754Z,47.85
2019-04-25T19:19:58.422Z,47.99
2019-04-25T19:22:25.005Z,48.38
2019-04-25T19:24:52.192Z,48.09
2019-04-25T19:27:23.917Z,48.40
2019-04-25T19:29:47.435Z,48.29
2019-04-25T19:32:14.257Z,48.29
2019-04-25T19:34:41.270Z,48.69
2019-04-25T19:37:08.742Z,48.55
2019-04-25T19:39:37.457Z,48.89
2019-04-25T19:42:06.361Z,49.37
2019-04-25T19:44:33.028Z,49.01
2019-04-25T19:46:59.575Z,49.52
2019-04-25T19:49:26.179Z,49.60
2019-04-25T19:51:52.910Z,49.54
2019-04-25T19:54:19.886Z,49.84
2019-04-25T19:56:49.612Z,50.30
2019-04-25T19:59:16.516Z,50.34
2019-04-25T20:01:44.058Z,50.17
2019-04-25T20:04:12.842Z,50.60
2019-04-25T20:06:42.402Z,50.43
2019-04-25T20:09:12.961Z,50.55
2019-04-25T20:11:44.214Z,50.69
2019-04-25T20:14:11.383Z,50.53
2019-04-25T20:16:40.703Z,51.58
2019-04-25T20:19:09.458Z,51.44
2019-04-25T20:21:36.669Z,51.54
2019-04-25T20:24:03.890Z,51.56
2019-04-25T20:26:30.971Z,51.70
2019-04-25T20:28:57.552Z,52.24
2019-04-25T20:31:24.326Z,52.04
2019-04-25T20:34:03.278Z,51.60
2019-04-25T20:36:20.241Z,52.16
2019-04-25T20:38:47.240Z,52.50
2019-04-25T20:41:14.263Z,52.66
2019-04-25T20:43:41.465Z,53.58
2019-04-25T20:46:08.103Z,53.73
2019-04-25T20:48:34.698Z,53.71
2019-04-25T20:51:01.387Z,53.49
2019-04-25T20:53:27.984Z,54.24
2019-04-25T20:55:54.994Z,54.71
2019-04-25T20:58:22.099Z,54.28
2019-04-25T21:00:51.609Z,53.99
2019-04-25T21:03:18.585Z,54.79
2019-04-25T21:05:46.999Z,54.59
2019-04-25T21:08:13.562Z,54.59
2019-04-25T21:10:40.367Z,55.31
2019-04-25T21:13:08.979Z,55.11
2019-04-25T21:15:37.768Z,55.43
2019-04-25T21:18:06.379Z,56.26
2019-04-25T21:20:32.930Z,55.21
2019-04-25T21:22:59.630Z,56.25
2019-04-25T21:25:26.366Z,55.61
2019-04-25T21:27:53.036Z,55.42
2019-04-25T21:30:19.723Z,55.18
2019-04-25T21:32:48.314Z,54.86
2019-04-25T21:35:15.172Z,55.13
2019-04-25T21:37:43.664Z,55.04
2019-04-25T21:40:13.026Z,55.35
2019-04-25T21:42:41.722Z,55.56
2019-04-25T21:45:09.532Z,55.47
2019-04-25T21:47:36.282Z,55.34
2019-04-25T21:50:06.125Z,55.67
2019-04-25T21:52:33.259Z,55.68
2019-04-25T21:55:00.166Z,56.11
2019-04-25T21:57:27.088Z,56.08
2019-04-25T22:00:03.108Z,56.45
2019-04-25T22:02:23.271Z,56.77
2019-04-25T22:04:50.680Z,57.01
2019-04-25T22:07:17.862Z,57.03
2019-04-25T22:09:44.952Z,57.53
2019-04-25T22:12:13.910Z,57.49
2019-04-25T22:14:40.576Z,58.25
2019-04-25T22:17:07.612Z,58.17
2019-04-25T22:19:34.646Z,57.92
2019-04-25T22:22:02.703Z,57.65
2019-04-25T22:24:30.617Z,57.76
2019-04-25T22:26:59.414Z,57.64
2019-04-25T22:29:26.745Z,57.51
2019-04-25T22:34:52.009Z,57.14
2019-04-25T22:37:14.271Z,56.97
2019-04-25T22:39:41.251Z,57.38
2019-04-25T22:42:08.030Z,57.69
2019-04-25T22:44:35.029Z,58.28
2019-04-25T22:47:04.258Z,58.59
2019-04-25T22:49:31.018Z,58.49
2019-04-25T22:51:57.669Z,58.35
2019-04-25T22:54:25.930Z,59.19
2019-04-25T22:56:52.630Z,59.22
2019-04-25T22:59:19.648Z,59.06
2019-04-25T23:01:48.394Z,59.52
2019-04-25T23:04:17.037Z,59.38
2019-04-25T23:06:44.214Z,59.22
2019-04-25T23:09:12.085Z,59.76
2019-04-25T23:11:40.282Z,60.00
2019-04-25T23:14:07.221Z,59.54
2019-04-25T23:16:33.881Z,59.68
2019-04-25T23:19:00.452Z,60.01
2019-04-25T23:21:27.103Z,60.30
2019-04-25T23:23:54.004Z,60.14
2019-04-25T23:26:22.649Z,60.06
2019-04-25T23:28:51.700Z,60.35
2019-04-25T23:31:20.210Z,60.37
2019-04-25T23:33:47.418Z,60.58
2019-04-25T23:36:15.392Z,60.79
2019-04-25T23:38:42.317Z,61.13
2019-04-25T23:41:09.389Z,61.47
2019-04-25T23:43:36.228Z,61.22
2019-04-25T23:46:03.022Z,61.54
2019-04-25T23:48:30.352Z,61.20
2019-04-25T23:50:57.157Z,61.50
2019-04-25T23:53:23.709Z,61.49
2019-04-25T23:55:50.574Z,61.79
2019-04-25T23:58:18.003Z,62.16
